Orient Glider Airport

Jump to: basic info | weather | comments

Related pages: nearby airports | nearby navaids | notams | map

Basic information (top)

Codes: FAOI
Location: lon -26.039400, lat 27.595600, elev 5,102 ft / 1,555 m msl
Status: small_airport

Weather (top)

Current conditions for Lanseria Airport 19nm (35km) ENE (rec'd 2014/04/17 12:00Z):

FALA 171200Z 34004KT 280V010 9999 OVC020 16/11 Q1025 NOSIG

Airport forecast for Lanseria Airport 19nm (35km) ENE (rec'd 2014/04/16 00:00Z):

TAF FAGG 162200Z 1700/1724 03008KT 9999 FEW040 TX24/1712ZTN12/1705Z= TAF FALA 162200Z 1700/1724 VRB02KT 6000 BKN008 
      TEMPO 1702/1706 4000 BR BKN004 
      BECMG 1708/1710 31011KT 9999 SCT035 TX22/1712ZTN10/1704Z

Latest comments (top)

Runway Orientation and Airfield Frequency: Runway 36/18 (Main) Runway 11/29 Airfi ... [read]

More... (top)

See also NOTAMs and nearby airports and navaids, or visit the Orient Glider Airport page at the main OurAirports website..